Time;durP1;ratioP1;P1;durP2;ratioP2;P2;SDS_P1;SDS_P2;PMS_P1;PMS_P2;Temp;Humidity;BMP_temperature;BMP_pressure;BME280_temperature;BME280_humidity;BME280_pressure;Samples;Min_cycle;Max_cycle;Signal;HPM_P1;HPM_P2
2023/05/18 00:02:06;;;;;;;7.80;4.30;;;;;;;17.13;44.55;99549.05;79633;1292;3012949;-63
2023/05/18 00:04:34;;;;;;;11.80;5.10;;;;;;;17.07;44.49;99548.18;78434;1297;3056936;-65
2023/05/18 00:07:05;;;;;;;10.10;4.40;;;;;;;17.04;44.96;99546.46;79603;1292;3012980;-62
2023/05/18 00:09:35;;;;;;;9.40;3.90;;;;;;;17.03;44.75;99547.77;78372;1295;3050075;-63
2023/05/18 00:12:03;;;;;;;5.60;4.20;;;;;;;17.00;45.20;99547.15;79632;1294;3013211;-62
2023/05/18 00:14:32;;;;;;;8.20;4.10;;;;;;;16.95;45.58;99546.56;79137;1295;3012122;-64
2023/05/18 00:17:00;;;;;;;9.40;4.20;;;;;;;16.88;45.83;99547.44;79570;1295;3013727;-64
2023/05/18 00:19:28;;;;;;;11.90;4.90;;;;;;;16.81;45.84;99541.38;79617;1292;3011476;-65
2023/05/18 00:21:56;;;;;;;8.20;3.90;;;;;;;16.76;45.90;99538.36;78299;1297;3049395;-63
2023/05/18 00:24:23;;;;;;;9.00;4.40;;;;;;;16.73;46.19;99535.60;79822;1291;3011693;-65
2023/05/18 00:26:49;;;;;;;9.00;4.40;;;;;;;16.70;46.29;99534.13;79573;1292;3011898;-63
2023/05/18 00:29:18;;;;;;;7.60;4.00;;;;;;;16.67;46.47;99528.92;78393;1295;3028267;-64
2023/05/18 00:31:46;;;;;;;7.30;4.50;;;;;;;16.64;46.65;99529.35;79607;1295;3013698;-63
2023/05/18 00:34:13;;;;;;;7.90;4.50;;;;;;;16.62;46.87;99530.17;79607;1292;3011478;-62
2023/05/18 00:36:41;;;;;;;12.30;5.10;;;;;;;16.57;47.40;99525.70;78488;1294;3049625;-64
2023/05/18 00:39:09;;;;;;;14.50;4.90;;;;;;;16.48;48.13;99526.22;79645;1295;3013688;-64
2023/05/18 00:41:36;;;;;;;10.60;5.20;;;;;;;16.39;48.89;99528.25;79636;1291;3011628;-65
2023/05/18 00:44:04;;;;;;;8.40;4.40;;;;;;;16.27;49.62;99531.70;78395;1294;3052487;-65
2023/05/18 00:46:30;;;;;;;11.30;5.50;;;;;;;16.27;49.77;99529.23;79574;1293;3019263;-63
2023/05/18 00:48:57;;;;;;;11.30;4.90;;;;;;;16.26;49.83;99527.54;79595;1292;3011920;-64
2023/05/18 00:51:25;;;;;;;9.10;4.90;;;;;;;16.28;49.81;99527.02;78472;1297;3025974;-63
2023/05/18 00:53:52;;;;;;;11.50;5.50;;;;;;;16.22;50.75;99525.98;79759;1297;3013464;-65
2023/05/18 00:56:22;;;;;;;10.50;5.40;;;;;;;16.14;51.41;99527.51;79606;1293;3011731;-62
2023/05/18 00:58:56;;;;;;;10.40;5.10;;;;;;;16.12;51.04;99525.04;78409;1295;3053364;-63
2023/05/18 01:01:29;;;;;;;16.40;5.20;;;;;;;16.09;51.54;99525.12;78365;1295;3068064;-64
2023/05/18 01:04:00;;;;;;;13.80;5.20;;;;;;;16.04;51.86;99527.42;79634;1295;3012158;-65
2023/05/18 01:06:36;;;;;;;18.90;7.10;;;;;;;15.99;52.51;99527.35;78475;1297;3057305;-64
2023/05/18 01:09:05;;;;;;;16.70;6.60;;;;;;;15.93;52.90;99529.20;79544;1297;3013129;-62
2023/05/18 01:11:38;;;;;;;13.50;7.80;;;;;;;15.87;53.70;99528.14;79708;1294;3011829;-62
2023/05/18 01:14:36;;;;;;;13.70;7.60;;;;;;;15.86;53.53;99527.81;78307;1295;3053034;-64
2023/05/18 01:17:32;;;;;;;11.40;7.90;;;;;;;15.80;54.09;99526.02;78393;1297;3053272;-62
2023/05/18 01:20:32;;;;;;;15.60;8.30;;;;;;;15.69;54.81;99529.14;78400;1294;3068796;-64
2023/05/18 01:23:40;;;;;;;13.40;7.40;;;;;;;15.64;54.58;99523.92;78423;1292;3051038;-61
2023/05/18 01:26:15;;;;;;;16.30;7.10;;;;;;;15.63;54.46;99528.41;78344;1296;3056987;-61
2023/05/18 01:28:47;;;;;;;15.00;6.80;;;;;;;15.63;54.32;99525.59;78373;1292;3048079;-63
2023/05/18 01:31:15;;;;;;;20.80;7.90;;;;;;;15.60;55.14;99528.35;79538;1293;3011687;-61
2023/05/18 01:33:43;;;;;;;13.70;7.20;;;;;;;15.57;54.74;99531.02;78469;1294;3048756;-64
2023/05/18 01:36:10;;;;;;;12.80;7.20;;;;;;;15.52;55.14;99530.84;79739;1294;3013015;-64
2023/05/18 01:38:36;;;;;;;10.90;7.20;;;;;;;15.39;56.05;99533.28;79573;1293;3011782;-63
2023/05/18 01:41:17;;;;;;;12.50;6.90;;;;;;;15.31;56.23;99531.84;78385;1295;3050804;-64
2023/05/18 01:44:00;;;;;;;19.00;6.90;;;;;;;15.27;56.09;99527.89;78364;1295;3057219;-64
2023/05/18 01:46:52;;;;;;;14.60;7.50;;;;;;;15.25;56.03;99533.73;78359;1298;3049826;-65
2023/05/18 01:49:35;;;;;;;9.70;6.20;;;;;;;15.23;55.86;99533.38;78342;1297;3053101;-62
2023/05/18 01:52:05;;;;;;;11.50;7.30;;;;;;;15.19;56.08;99535.40;78573;1294;3050432;-63
2023/05/18 01:54:32;;;;;;;13.30;7.40;;;;;;;15.18;56.29;99534.86;79775;1298;3013210;-66
2023/05/18 01:56:59;;;;;;;18.30;7.60;;;;;;;15.19;56.12;99537.91;79731;1293;3011770;-64
2023/05/18 01:59:27;;;;;;;12.30;6.50;;;;;;;15.19;55.60;99541.79;78416;1298;3051934;-62
2023/05/18 02:01:58;;;;;;;11.20;6.70;;;;;;;15.21;55.05;99540.74;79672;1292;3012786;-63
2023/05/18 02:04:26;;;;;;;12.00;6.30;;;;;;;15.24;54.61;99544.77;78195;1301;3053016;-61
2023/05/18 02:06:54;;;;;;;9.90;6.30;;;;;;;15.26;54.61;99542.29;79704;1311;3014063;-63
2023/05/18 02:09:21;;;;;;;12.50;6.70;;;;;;;15.27;54.47;99543.63;79573;1295;3013242;-64
2023/05/18 02:11:49;;;;;;;12.80;6.90;;;;;;;15.29;53.85;99543.99;78433;1293;3068857;-64
2023/05/18 02:14:16;;;;;;;13.70;6.90;;;;;;;15.32;53.31;99541.85;79610;1298;3013008;-62
2023/05/18 02:16:45;;;;;;;11.10;6.70;;;;;;;15.34;53.22;99549.23;79608;1294;3013594;-61
2023/05/18 02:19:13;;;;;;;16.80;6.80;;;;;;;15.38;52.67;99549.65;78368;1295;3053584;-63
2023/05/18 02:21:42;;;;;;;9.80;5.90;;;;;;;15.43;52.40;99549.08;79690;1297;3020911;-62
2023/05/18 02:24:08;;;;;;;9.30;6.10;;;;;;;15.48;52.15;99553.79;79541;1297;3011677;-66
2023/05/18 02:26:37;;;;;;;9.70;6.00;;;;;;;15.52;52.37;99556.15;78357;1298;3068851;-63
2023/05/18 02:29:10;;;;;;;11.80;6.40;;;;;;;15.61;51.83;99556.67;79516;1292;3013200;-62
2023/05/18 02:31:39;;;;;;;13.20;6.90;;;;;;;15.65;51.63;99557.54;78350;1297;3048863;-66
2023/05/18 02:34:05;;;;;;;13.00;6.50;;;;;;;15.66;51.47;99553.25;79727;1297;3013064;-63
2023/05/18 02:36:38;;;;;;;11.30;7.10;;;;;;;15.63;51.59;99551.88;79738;1292;3011731;-62
2023/05/18 02:39:10;;;;;;;10.10;6.60;;;;;;;15.63;51.56;99552.77;78359;1304;3051327;-61
2023/05/18 02:41:37;;;;;;;13.50;6.90;;;;;;;15.66;51.38;99554.37;79590;1295;3013103;-61
2023/05/18 02:44:06;;;;;;;12.10;7.10;;;;;;;15.66;51.33;99559.58;79072;1295;3011533;-65
2023/05/18 02:46:34;;;;;;;11.50;6.30;;;;;;;15.71;51.04;99567.30;79607;1297;3013630;-64
2023/05/18 02:49:01;;;;;;;9.70;6.30;;;;;;;15.74;50.78;99573.59;79585;1293;3013210;-63
2023/05/18 02:51:30;;;;;;;16.50;6.70;;;;;;;15.73;50.87;99575.64;78435;1294;3050152;-64
2023/05/18 02:53:57;;;;;;;11.60;6.50;;;;;;;15.78;50.66;99573.84;79627;1297;3013946;-63
2023/05/18 02:56:24;;;;;;;11.70;6.40;;;;;;;15.81;50.62;99574.36;79547;1292;3012997;-66
2023/05/18 02:59:00;;;;;;;14.00;6.30;;;;;;;15.84;50.55;99574.13;78338;1298;3051562;-62
2023/05/18 03:01:33;;;;;;;10.00;6.40;;;;;;;15.88;50.39;99572.55;79668;1295;3013196;-64
2023/05/18 03:04:01;;;;;;;16.20;6.40;;;;;;;15.89;50.43;99573.83;78706;1298;3049549;-61
2023/05/18 03:06:29;;;;;;;9.30;6.10;;;;;;;15.93;50.35;99570.52;79618;1296;3013507;-63
2023/05/18 03:08:56;;;;;;;10.40;6.80;;;;;;;15.99;50.07;99571.69;79554;1292;3011454;-62
2023/05/18 03:11:28;;;;;;;9.60;6.40;;;;;;;15.99;50.30;99574.99;78456;1295;3052647;-61
2023/05/18 03:13:54;;;;;;;13.40;6.30;;;;;;;16.04;50.10;99573.05;79565;1295;3013311;-63
2023/05/18 03:16:27;;;;;;;9.60;6.60;;;;;;;16.07;50.00;99567.66;79604;1295;3012125;-65
2023/05/18 03:18:57;;;;;;;10.80;6.70;;;;;;;16.09;49.87;99571.23;78408;1297;3049119;-63
2023/05/18 03:21:24;;;;;;;11.60;7.00;;;;;;;16.10;49.93;99567.23;79688;1295;3013052;-66
2023/05/18 03:23:53;;;;;;;12.60;7.10;;;;;;;16.13;49.49;99570.69;79103;1297;3012208;-66
2023/05/18 03:26:24;;;;;;;11.10;6.20;;;;;;;16.17;49.52;99570.49;79690;1298;3018985;-65
2023/05/18 03:28:53;;;;;;;10.90;7.00;;;;;;;16.25;49.31;99573.56;78399;1304;3069482;-60
2023/05/18 03:31:20;;;;;;;11.60;6.80;;;;;;;16.32;49.15;99573.55;79625;1297;3013104;-63
2023/05/18 03:33:47;;;;;;;15.60;7.00;;;;;;;16.37;49.31;99575.23;79532;1297;3011621;-64
2023/05/18 03:36:15;;;;;;;13.30;7.20;;;;;;;16.39;49.21;99579.33;78377;1296;3026149;-62
2023/05/18 03:38:44;;;;;;;11.30;6.30;;;;;;;16.45;48.95;99582.05;79575;1295;3013316;-65
2023/05/18 03:41:13;;;;;;;9.90;6.70;;;;;;;16.53;49.06;99583.48;79083;1293;3011890;-62
2023/05/18 03:43:40;;;;;;;13.90;6.60;;;;;;;16.58;48.83;99582.89;79542;1305;3013350;-64
2023/05/18 03:46:07;;;;;;;14.10;6.90;;;;;;;16.62;48.96;99582.87;79610;1292;3012731;-62
2023/05/18 03:48:35;;;;;;;14.20;6.80;;;;;;;16.68;48.57;99583.27;78457;1297;3025831;-65
2023/05/18 03:51:02;;;;;;;13.00;7.00;;;;;;;16.76;48.69;99582.73;79652;1291;3013605;-63
2023/05/18 03:53:29;;;;;;;12.70;6.80;;;;;;;16.83;48.30;99581.34;79785;1291;3011997;-63
2023/05/18 03:55:58;;;;;;;9.50;6.30;;;;;;;16.87;48.33;99582.72;78454;1295;3053237;-64
2023/05/18 03:58:26;;;;;;;10.90;6.00;;;;;;;16.91;48.39;99588.27;79695;1296;3013714;-64
2023/05/18 04:00:52;;;;;;;12.50;6.60;;;;;;;16.95;48.38;99593.10;79640;1295;3011653;-62
2023/05/18 04:03:23;;;;;;;11.30;6.80;;;;;;;16.99;48.42;99595.58;78354;1295;3057118;-64
2023/05/18 04:05:52;;;;;;;14.60;6.50;;;;;;;17.06;48.53;99597.40;79705;1291;3013678;-68
2023/05/18 04:08:20;;;;;;;14.30;6.90;;;;;;;17.17;48.01;99594.60;78325;1298;3025980;-64
2023/05/18 04:10:46;;;;;;;11.40;7.40;;;;;;;17.22;48.32;99598.05;79675;1305;3012840;-65
2023/05/18 04:13:13;;;;;;;18.10;7.90;;;;;;;17.28;48.14;99600.50;79567;1297;3011625;-63
2023/05/18 04:15:40;;;;;;;12.70;7.10;;;;;;;17.34;48.10;99598.64;78403;1297;3027954;-63
2023/05/18 04:18:09;;;;;;;14.90;6.60;;;;;;;17.38;47.96;99602.45;79652;1298;3018520;-63
2023/05/18 04:20:36;;;;;;;13.60;7.80;;;;;;;17.43;47.95;99607.15;79582;1292;3011639;-65
2023/05/18 04:23:04;;;;;;;12.40;7.80;;;;;;;17.46;48.46;99602.83;78594;1295;3054118;-64
2023/05/18 04:25:31;;;;;;;15.20;7.30;;;;;;;17.49;48.03;99603.55;79615;1304;3013285;-64
2023/05/18 04:27:58;;;;;;;14.10;7.50;;;;;;;17.56;47.90;99597.86;79505;1293;3012806;-63
2023/05/18 04:30:28;;;;;;;11.60;7.20;;;;;;;17.62;48.39;99597.55;78369;1295;3026327;-65
2023/05/18 04:32:57;;;;;;;10.60;7.00;;;;;;;17.68;48.21;99592.84;79696;1291;3013890;-65
2023/05/18 04:35:26;;;;;;;14.40;7.00;;;;;;;17.77;48.05;99598.17;78428;1292;3055415;-66
2023/05/18 04:37:53;;;;;;;12.30;7.10;;;;;;;17.86;47.58;99598.25;79623;1292;3019588;-64
2023/05/18 04:40:20;;;;;;;12.50;6.90;;;;;;;17.94;47.92;99599.21;79588;1299;3013173;-64
2023/05/18 04:42:49;;;;;;;14.60;7.70;;;;;;;17.97;47.71;99603.56;78338;1305;3051994;-63
2023/05/18 04:45:28;;;;;;;13.20;7.30;;;;;;;18.02;47.21;99609.80;78402;1295;3053743;-64
2023/05/18 04:47:57;;;;;;;11.80;6.70;;;;;;;18.10;47.28;99607.84;79525;1297;3012900;-66
2023/05/18 04:50:26;;;;;;;10.40;6.70;;;;;;;18.17;47.01;99609.27;79039;1292;3012348;-63
2023/05/18 04:52:56;;;;;;;13.40;6.60;;;;;;;18.23;46.89;99607.09;79574;1297;3013363;-67
2023/05/18 04:55:25;;;;;;;12.10;7.70;;;;;;;18.30;46.65;99607.91;78436;1295;3053979;-67
2023/05/18 04:57:55;;;;;;;11.90;7.20;;;;;;;18.37;46.53;99607.59;79576;1294;3014604;-66
2023/05/18 05:00:24;;;;;;;16.40;7.70;;;;;;;18.47;46.57;99608.98;79107;1295;3011460;-64
2023/05/18 05:02:51;;;;;;;12.80;7.30;;;;;;;18.53;46.57;99608.29;79768;1292;3014183;-64
2023/05/18 05:05:18;;;;;;;12.90;7.80;;;;;;;18.57;46.55;99610.73;79739;1292;3012815;-64
2023/05/18 05:07:46;;;;;;;15.50;8.00;;;;;;;18.65;46.69;99609.99;78349;1297;3057399;-64
2023/05/18 05:10:12;;;;;;;14.20;7.70;;;;;;;18.73;46.72;99609.29;79746;1293;3012862;-62
2023/05/18 05:12:40;;;;;;;17.10;8.10;;;;;;;18.76;46.29;99610.40;79686;1292;3011840;-64
2023/05/18 05:15:08;;;;;;;15.60;8.00;;;;;;;18.79;46.25;99606.59;78416;1295;3026034;-65
2023/05/18 05:17:35;;;;;;;13.20;7.90;;;;;;;18.88;46.54;99605.27;79615;1295;3013428;-63
2023/05/18 05:20:02;;;;;;;14.00;8.00;;;;;;;18.95;45.94;99610.41;79542;1292;3011873;-66
2023/05/18 05:22:30;;;;;;;17.70;7.80;;;;;;;19.04;45.77;99606.06;78268;1295;3056509;-63
2023/05/18 05:24:57;;;;;;;12.80;8.70;;;;;;;19.10;45.82;99611.71;79706;1292;3013194;-64
2023/05/18 05:27:25;;;;;;;17.40;8.30;;;;;;;19.12;45.47;99608.00;79834;1293;3011549;-63
2023/05/18 05:29:53;;;;;;;17.20;8.50;;;;;;;19.17;45.15;99613.54;78672;1292;3052999;-64
2023/05/18 05:32:19;;;;;;;16.40;8.30;;;;;;;19.26;45.31;99607.75;79617;1295;3018885;-63
2023/05/18 05:34:49;;;;;;;16.40;8.30;;;;;;;19.32;45.11;99604.70;79683;1295;3013651;-68
2023/05/18 05:37:17;;;;;;;13.30;8.90;;;;;;;19.34;44.36;99600.96;78465;1293;3056552;-63
2023/05/18 05:39:44;;;;;;;21.00;9.50;;;;;;;19.38;44.30;99598.09;79565;1296;3012901;-67
2023/05/18 05:42:12;;;;;;;16.60;8.70;;;;;;;19.46;44.35;99595.36;79532;1293;3011996;-67
2023/05/18 05:44:41;;;;;;;14.00;8.60;;;;;;;19.54;44.35;99594.56;78393;1296;3052650;-62
2023/05/18 05:47:08;;;;;;;17.30;9.40;;;;;;;19.62;44.35;99589.42;79724;1292;3013147;-64
2023/05/18 05:49:35;;;;;;;14.80;9.00;;;;;;;19.63;44.58;99586.34;79574;1292;3011695;-66
2023/05/18 05:52:03;;;;;;;14.30;8.80;;;;;;;19.75;44.51;99593.81;78481;1294;3028106;-67
2023/05/18 05:54:30;;;;;;;18.10;9.20;;;;;;;19.85;44.39;99591.25;80121;1295;3012823;-64
2023/05/18 05:56:57;;;;;;;16.20;8.60;;;;;;;19.97;44.37;99591.20;79598;1294;3013582;-64
2023/05/18 05:59:25;;;;;;;16.90;9.60;;;;;;;20.09;44.16;99595.20;78570;1294;3051857;-64
2023/05/18 06:01:52;;;;;;;13.80;9.20;;;;;;;20.13;44.07;99594.40;79351;1295;3013535;-67
2023/05/18 06:04:20;;;;;;;16.70;9.00;;;;;;;20.23;43.97;99597.23;79395;1292;3011931;-66
2023/05/18 06:06:49;;;;;;;14.70;8.00;;;;;;;20.28;43.78;99593.48;78102;1298;3057230;-64
2023/05/18 06:09:16;;;;;;;14.30;7.80;;;;;;;20.38;43.16;99592.44;79524;1293;3013828;-65
2023/05/18 06:11:43;;;;;;;11.60;7.50;;;;;;;20.50;42.82;99596.07;79510;1296;3011760;-67
2023/05/18 06:14:11;;;;;;;13.30;7.80;;;;;;;20.61;42.94;99596.29;78336;1297;3052330;-66
2023/05/18 06:16:38;;;;;;;18.90;8.20;;;;;;;20.69;42.34;99599.00;79679;1295;3011757;-65
2023/05/18 06:19:04;;;;;;;16.10;7.80;;;;;;;20.73;42.09;99597.38;79536;1292;3011853;-64
2023/05/18 06:21:32;;;;;;;15.90;8.30;;;;;;;20.81;42.18;99601.04;78322;1297;3026996;-69
2023/05/18 06:24:00;;;;;;;13.20;8.20;;;;;;;20.90;42.34;99599.77;79668;1292;3013373;-67
2023/05/18 06:26:36;;;;;;;12.90;8.20;;;;;;;20.97;42.44;99598.48;78447;1297;3049499;-66
2023/05/18 06:29:15;;;;;;;14.60;8.20;;;;;;;21.10;41.96;99596.35;78392;1295;3053777;-69
2023/05/18 06:32:04;;;;;;;12.30;8.60;;;;;;;21.18;42.01;99593.36;78397;1295;3052031;-66
2023/05/18 06:34:36;;;;;;;17.50;7.50;;;;;;;21.25;41.70;99591.55;79590;1295;3011620;-64
2023/05/18 06:37:04;;;;;;;9.50;7.00;;;;;;;21.35;41.70;99591.40;78424;1295;3051412;-65
2023/05/18 06:39:31;;;;;;;15.10;8.90;;;;;;;21.42;41.48;99586.98;79628;1293;3013939;-65
2023/05/18 06:41:58;;;;;;;13.40;7.80;;;;;;;21.47;41.42;99586.81;79600;1296;3011878;-64
2023/05/18 06:44:34;;;;;;;13.20;7.70;;;;;;;21.58;41.47;99588.02;78423;1298;3050764;-63
2023/05/18 06:47:23;;;;;;;15.10;8.40;;;;;;;21.67;41.19;99579.60;78374;1295;3052769;-66
2023/05/18 08:06:34;;;;;;;11.10;7.00;;;;;;;24.17;33.88;99572.50;78139;1298;3049152;-63
2023/05/18 08:09:00;;;;;;;21.70;7.80;;;;;;;24.25;33.13;99573.84;79385;1295;3013376;-62
2023/05/18 08:11:27;;;;;;;10.40;7.70;;;;;;;24.26;32.37;99570.30;79340;1298;3012927;-61
2023/05/18 08:13:55;;;;;;;13.20;8.30;;;;;;;24.33;31.90;99571.13;78115;1298;3025362;-61
2023/05/18 08:16:21;;;;;;;12.20;7.70;;;;;;;24.38;31.19;99571.55;79349;1300;3012940;-62
2023/05/18 08:18:50;;;;;;;13.40;6.90;;;;;;;24.49;31.07;99565.08;79384;1295;3011848;-63
2023/05/18 08:21:18;;;;;;;11.00;7.30;;;;;;;24.51;31.16;99565.05;78242;1297;3049407;-62
2023/05/18 08:23:45;;;;;;;11.50;7.40;;;;;;;24.35;31.14;99565.04;79280;1301;3013773;-60
2023/05/18 08:26:11;;;;;;;9.60;6.90;;;;;;;24.36;31.07;99567.38;79375;1298;3011747;-65
2023/05/18 08:28:39;;;;;;;10.60;7.20;;;;;;;24.48;30.56;99565.59;78305;1298;3025044;-64
2023/05/18 08:31:06;;;;;;;9.80;7.40;;;;;;;24.65;30.55;99562.75;79395;1297;3013471;-66
2023/05/18 08:33:33;;;;;;;9.50;7.10;;;;;;;24.82;30.41;99559.55;79360;1297;3011657;-65
2023/05/18 08:36:02;;;;;;;13.90;7.00;;;;;;;25.04;30.04;99557.80;78178;1295;3050148;-65
2023/05/18 08:38:30;;;;;;;14.70;7.20;;;;;;;25.21;29.40;99549.33;79546;1297;3013273;-64
2023/05/18 08:41:22;;;;;;;10.70;6.80;;;;;;;25.31;28.33;99546.45;79357;1297;3013091;-63
2023/05/18 08:44:05;;;;;;;9.00;6.10;;;;;;;25.49;28.04;99543.77;78422;1298;3051844;-67
2023/05/18 08:46:37;;;;;;;14.50;6.90;;;;;;;25.70;27.91;99545.46;78283;1296;3068886;-66
2023/05/18 08:49:03;;;;;;;12.00;6.70;;;;;;;25.75;27.26;99545.23;79487;1300;3013459;-67
2023/05/18 08:51:33;;;;;;;9.10;6.50;;;;;;;25.85;27.11;99542.80;79688;1294;3011608;-67
2023/05/18 08:54:02;;;;;;;8.50;5.90;;;;;;;25.92;27.00;99542.29;78375;1298;3052556;-65
2023/05/18 08:56:33;;;;;;;12.70;6.20;;;;;;;26.06;27.09;99540.21;79585;1295;3013074;-64
2023/05/18 08:59:03;;;;;;;13.60;6.40;;;;;;;26.21;27.05;99535.29;78077;1300;3053137;-65
2023/05/18 09:01:30;;;;;;;13.90;6.20;;;;;;;26.17;26.65;99539.38;79473;1298;3012820;-65
2023/05/18 09:03:57;;;;;;;10.30;7.10;;;;;;;26.16;26.75;99538.00;79260;1295;3011645;-63
2023/05/18 09:06:27;;;;;;;11.90;6.90;;;;;;;26.27;27.01;99538.81;78243;1298;3056131;-64
2023/05/18 09:08:58;;;;;;;11.20;7.40;;;;;;;26.32;27.15;99540.17;79730;1298;3011657;-65
2023/05/18 09:11:27;;;;;;;8.60;6.40;;;;;;;26.45;27.20;99536.59;78565;1294;3052705;-63
2023/05/18 09:13:53;;;;;;;8.80;6.50;;;;;;;26.62;26.97;99534.06;79759;1298;3013579;-65
2023/05/18 09:16:20;;;;;;;7.60;6.30;;;;;;;26.67;26.72;99531.05;80053;1295;3013788;-66
2023/05/18 09:18:48;;;;;;;9.20;6.60;;;;;;;26.65;26.54;99532.90;78838;1298;3068115;-68
2023/05/18 09:21:14;;;;;;;8.80;6.60;;;;;;;26.73;26.74;99532.27;79758;1298;3012954;-65
2023/05/18 09:23:42;;;;;;;10.60;5.80;;;;;;;26.75;26.54;99532.16;79420;1295;3013155;-63
2023/05/18 09:26:11;;;;;;;10.50;6.60;;;;;;;26.85;25.92;99522.23;78224;1298;3052566;-65
2023/05/18 09:28:40;;;;;;;7.80;5.80;;;;;;;26.91;25.94;99518.54;79702;1298;3013776;-64
2023/05/18 09:31:11;;;;;;;9.20;6.40;;;;;;;27.03;25.89;99518.89;78320;1298;3026654;-63
2023/05/18 09:33:38;;;;;;;7.90;5.90;;;;;;;26.94;26.01;99518.14;79843;1298;3013273;-64
2023/05/18 09:36:08;;;;;;;9.50;7.50;;;;;;;26.98;26.03;99520.86;78929;1297;3013313;-69
2023/05/18 09:38:37;;;;;;;13.70;7.30;;;;;;;27.06;25.99;99512.55;79750;1299;3011241;-67
2023/05/18 09:49:20;;;;;;;12.10;6.80;;;;;;;26.31;25.73;99512.66;78257;1298;3053544;-67
2023/05/18 09:51:47;;;;;;;8.70;5.40;;;;;;;26.52;25.57;99511.08;79755;1298;3011964;-67
2023/05/18 09:54:16;;;;;;;9.20;6.30;;;;;;;26.75;24.83;99506.17;79212;1299;3011994;-66
2023/05/18 09:56:42;;;;;;;11.60;6.10;;;;;;;26.93;24.75;99506.78;79610;1298;3013389;-66
2023/05/18 09:59:10;;;;;;;8.90;5.80;;;;;;;27.12;25.23;99507.60;79314;1295;3013216;-66
2023/05/18 10:01:59;;;;;;;9.00;5.80;;;;;;;27.43;24.23;99503.69;78633;1298;3057416;-64
2023/05/18 10:04:37;;;;;;;10.20;6.00;;;;;;;27.55;23.71;99507.84;78496;1297;3049544;-66
2023/05/18 10:07:12;;;;;;;9.40;5.80;;;;;;;27.51;23.70;99502.64;78393;1298;3054576;-66
2023/05/18 10:09:42;;;;;;;8.90;6.20;;;;;;;27.31;24.18;99503.80;79184;1296;3011809;-65
2023/05/18 10:12:20;;;;;;;11.10;6.00;;;;;;;27.18;24.38;99504.24;79648;1298;3013483;-68
2023/05/18 10:14:48;;;;;;;9.90;5.90;;;;;;;27.30;24.56;99496.98;78222;1300;3052975;-69
2023/05/18 10:17:14;;;;;;;10.90;6.50;;;;;;;27.51;24.22;99491.73;79565;1300;3013399;-66
2023/05/18 10:19:41;;;;;;;9.60;6.00;;;;;;;27.52;24.26;99489.38;79627;1298;3013030;-66
2023/05/18 10:22:09;;;;;;;8.50;5.50;;;;;;;27.52;24.35;99487.52;78287;1298;3024770;-67
2023/05/18 10:24:41;;;;;;;8.20;6.50;;;;;;;27.61;23.83;99492.67;79633;1298;3013558;-68
2023/05/18 10:27:09;;;;;;;10.60;6.10;;;;;;;27.77;23.92;99483.95;78315;1298;3050182;-70
2023/05/18 10:29:36;;;;;;;10.40;6.20;;;;;;;27.79;24.33;99485.36;79517;1301;3013693;-66
2023/05/18 10:32:03;;;;;;;13.00;6.10;;;;;;;27.71;24.53;99482.39;79438;1301;3011957;-66
2023/05/18 10:34:32;;;;;;;9.60;6.30;;;;;;;27.51;24.08;99484.38;78264;1295;3051417;-68
2023/05/18 10:37:00;;;;;;;12.60;6.20;;;;;;;27.29;24.06;99487.56;79609;1296;3011569;-69
2023/05/18 10:39:27;;;;;;;7.50;5.50;;;;;;;27.34;24.08;99482.16;79598;1297;3012958;-69
2023/05/18 10:41:55;;;;;;;8.20;6.30;;;;;;;27.53;23.43;99479.33;78149;1301;3049547;-64
2023/05/18 10:44:23;;;;;;;7.70;5.70;;;;;;;27.60;23.58;99475.07;79588;1301;3012995;-65
2023/05/18 10:46:49;;;;;;;8.20;5.40;;;;;;;27.76;23.37;99475.39;79606;1296;3011368;-66
2023/05/18 10:49:22;;;;;;;8.50;5.60;;;;;;;27.76;23.41;99470.00;78451;1295;3052114;-68
2023/05/18 10:51:48;;;;;;;11.70;6.10;;;;;;;27.68;23.19;99474.09;79610;1295;3011424;-65
2023/05/18 10:54:16;;;;;;;8.00;5.60;;;;;;;27.75;23.43;99471.81;78168;1303;3048913;-69
2023/05/18 10:56:46;;;;;;;10.00;6.40;;;;;;;27.92;23.46;99473.16;79635;1301;3013371;-65
2023/05/18 10:59:15;;;;;;;10.70;5.80;;;;;;;28.17;22.80;99468.42;78928;1301;3011904;-67
2023/05/18 11:01:41;;;;;;;7.80;6.30;;;;;;;28.33;22.57;99462.85;79632;1298;3013721;-66
2023/05/18 11:04:08;;;;;;;7.90;6.00;;;;;;;28.49;22.86;99464.73;79364;1301;3011925;-66
2023/05/18 11:06:37;;;;;;;9.10;5.90;;;;;;;28.83;22.76;99463.56;78235;1301;3028714;-68
2023/05/18 11:09:03;;;;;;;8.00;6.40;;;;;;;29.02;22.43;99462.05;79595;1296;3012540;-68
2023/05/18 11:45:55;;;;;;;8.20;6.20;;;;;;;29.76;20.64;99432.56;78090;1300;3053486;-63
2023/05/18 11:48:25;;;;;;;6.30;5.50;;;;;;;29.60;20.62;99433.44;78332;1308;3049176;-62
2023/05/18 11:50:53;;;;;;;7.30;6.00;;;;;;;29.51;20.72;99435.15;79577;1299;3013672;-63
2023/05/18 11:53:25;;;;;;;8.40;6.10;;;;;;;29.60;20.51;99432.02;79529;1295;3011865;-63
2023/05/18 11:55:53;;;;;;;13.60;5.50;;;;;;;29.92;19.93;99431.20;78361;1298;3050996;-63
2023/05/18 11:58:20;;;;;;;8.80;5.70;;;;;;;30.15;19.77;99428.57;77912;1301;5504755;-70
2023/05/18 12:00:47;;;;;;;15.30;5.70;;;;;;;30.40;19.44;99425.46;79794;1298;3011600;-71
2023/05/18 12:03:15;;;;;;;8.70;5.80;;;;;;;30.65;19.17;99417.12;78384;1295;3048005;-70
2023/05/18 12:05:47;;;;;;;7.10;5.60;;;;;;;30.71;19.15;99414.54;79555;1308;3012467;-72
2023/05/18 12:08:18;;;;;;;10.40;6.00;;;;;;;31.00;19.29;99416.08;78518;1296;3068952;-66
2023/05/18 12:10:48;;;;;;;9.40;5.90;;;;;;;31.12;19.30;99418.87;79711;1298;3011810;-67
2023/05/18 12:13:16;;;;;;;10.20;6.50;;;;;;;31.11;19.39;99420.18;78588;1294;3057867;-66
2023/05/18 12:15:43;;;;;;;8.10;6.20;;;;;;;31.27;19.35;99416.08;79887;1298;3018606;-67
2023/05/18 12:18:10;;;;;;;12.10;7.00;;;;;;;31.04;19.43;99415.73;79519;1301;3011707;-72
2023/05/18 12:20:38;;;;;;;11.30;6.80;;;;;;;30.66;19.64;99414.98;78430;1297;3052403;-70
2023/05/18 12:23:04;;;;;;;7.70;5.90;;;;;;;30.33;19.86;99417.13;79643;1298;3013605;-69
2023/05/18 12:25:31;;;;;;;8.30;6.10;;;;;;;30.22;20.04;99416.57;79645;1298;3012828;-69
2023/05/18 12:27:59;;;;;;;13.50;6.20;;;;;;;30.23;20.07;99416.43;78380;1299;3026310;-66
2023/05/18 12:30:33;;;;;;;9.50;5.60;;;;;;;30.47;19.86;99418.00;79728;1295;3013317;-66
2023/05/18 12:33:01;;;;;;;14.10;6.10;;;;;;;30.77;19.59;99414.39;78397;1298;3049436;-66
2023/05/18 12:35:29;;;;;;;10.20;6.30;;;;;;;30.86;19.36;99411.08;79551;1294;3013440;-68
2023/05/18 12:38:00;;;;;;;12.30;5.60;;;;;;;30.99;19.43;99416.59;79792;1298;3011899;-67
2023/05/18 12:40:42;;;;;;;8.00;5.70;;;;;;;31.17;18.99;99413.08;78323;1296;3050951;-68
2023/05/18 12:43:11;;;;;;;9.20;6.50;;;;;;;31.17;19.16;99412.11;78288;1296;3056410;-69
2023/05/18 12:45:39;;;;;;;10.40;6.10;;;;;;;30.97;19.55;99415.27;79776;1308;3013110;-67
2023/05/18 12:48:06;;;;;;;7.40;6.00;;;;;;;30.65;19.81;99417.29;79590;1296;3012310;-67
2023/05/18 12:50:36;;;;;;;12.80;6.60;;;;;;;30.74;20.03;99413.27;78175;1301;3052715;-68
2023/05/18 12:53:02;;;;;;;9.10;6.70;;;;;;;30.79;19.97;99417.42;79706;1297;3013394;-69
2023/05/18 12:55:33;;;;;;;9.80;6.00;;;;;;;30.84;19.87;99417.57;79508;1298;3011710;-70
2023/05/18 12:58:02;;;;;;;9.60;6.10;;;;;;;31.08;19.72;99409.02;78309;1299;3056657;-72
2023/05/18 13:00:33;;;;;;;8.50;6.40;;;;;;;31.16;19.54;99410.02;79659;1298;3013444;-68
2023/05/18 13:03:11;;;;;;;7.00;6.00;;;;;;;31.05;19.81;99408.94;78417;1301;3052633;-66
2023/05/18 13:05:40;;;;;;;9.40;6.10;;;;;;;31.34;19.75;99405.02;78378;1298;3050702;-70
2023/05/18 13:08:08;;;;;;;9.00;5.60;;;;;;;31.60;19.69;99412.39;79612;1297;3011458;-71
2023/05/18 13:10:34;;;;;;;14.00;6.30;;;;;;;31.67;19.77;99415.58;79755;1298;3011669;-69
2023/05/18 13:13:03;;;;;;;10.20;6.10;;;;;;;31.32;19.99;99415.83;78457;1296;3051841;-68
2023/05/18 13:15:35;;;;;;;10.30;5.90;;;;;;;30.97;20.39;99413.54;79694;1295;3013355;-66
2023/05/18 13:18:08;;;;;;;8.00;5.70;;;;;;;30.55;20.70;99417.69;78606;1296;3052733;-64
2023/05/18 13:22:24;;;;;;;6.90;5.50;;;;;;;30.34;20.85;99418.73;80057;1301;3012867;-65
2023/05/18 13:24:51;;;;;;;6.20;5.30;;;;;;;30.12;21.22;99418.38;79004;1307;3011528;-69